createdAt,value
2018-05-23T00:01:16.065Z,90.70
2018-05-23T00:03:44.460Z,90.40
2018-05-23T00:06:12.898Z,90.40
2018-05-23T00:08:42.016Z,91.00
2018-05-23T00:11:10.527Z,90.40
2018-05-23T00:13:38.152Z,93.40
2018-05-23T00:16:06.178Z,91.20
2018-05-23T00:18:35.460Z,91.10
2018-05-23T00:21:03.093Z,94.00
2018-05-23T00:23:31.847Z,90.80
2018-05-23T00:26:00.316Z,90.90
2018-05-23T00:28:28.339Z,91.30
2018-05-23T00:30:56.338Z,91.20
2018-05-23T00:35:53.780Z,90.40
2018-05-23T00:38:21.395Z,93.80
2018-05-23T00:40:50.563Z,89.60
2018-05-23T00:43:18.180Z,92.60
2018-05-23T00:45:45.985Z,90.80
2018-05-23T00:48:14.014Z,90.70
2018-05-23T00:50:41.630Z,93.20
2018-05-23T00:53:09.654Z,87.90
2018-05-23T00:55:37.729Z,88.40
2018-05-23T00:58:06.532Z,88.30
2018-05-23T01:00:34.147Z,92.00
2018-05-23T01:03:01.772Z,92.30
2018-05-23T01:05:30.914Z,88.20
2018-05-23T01:07:59.297Z,88.40
2018-05-23T01:10:27.693Z,89.00
2018-05-23T01:12:55.729Z,88.20
2018-05-23T01:15:24.578Z,88.20
2018-05-23T01:17:52.595Z,89.00
2018-05-23T01:22:50.001Z,88.00
2018-05-23T01:25:19.288Z,88.00
2018-05-23T01:27:47.318Z,87.80
2018-05-23T01:30:14.955Z,92.80
2018-05-23T01:32:43.376Z,87.20
2018-05-23T01:35:12.503Z,88.10
2018-05-23T01:37:41.307Z,87.00
2018-05-23T01:40:08.937Z,92.50
2018-05-23T01:42:36.978Z,87.50
2018-05-23T01:45:04.748Z,92.10
2018-05-23T01:47:32.797Z,86.00
2018-05-23T01:50:01.212Z,86.50
2018-05-23T01:52:28.859Z,92.10
2018-05-23T01:54:56.867Z,86.20
2018-05-23T01:57:25.654Z,86.60
2018-05-23T01:59:53.274Z,92.30
2018-05-23T02:02:21.696Z,87.20
2018-05-23T02:04:49.319Z,92.50
2018-05-23T02:07:17.350Z,86.90
2018-05-23T02:09:45.063Z,92.50
2018-05-23T02:12:13.143Z,87.00
2018-05-23T02:14:41.164Z,87.00
2018-05-23T02:17:09.168Z,92.30
2018-05-23T02:19:36.793Z,92.40
2018-05-23T02:22:05.179Z,86.30
2018-05-23T02:24:32.832Z,92.20
2018-05-23T02:27:00.883Z,86.50
2018-05-23T02:29:29.276Z,87.30
2018-05-23T02:31:57.684Z,86.90
2018-05-23T02:34:26.073Z,86.60
2018-05-23T02:36:54.092Z,87.20
2018-05-23T02:39:22.507Z,88.00
2018-05-23T02:41:50.146Z,90.90
2018-05-23T02:44:18.199Z,89.30
2018-05-23T02:46:46.258Z,87.70
2018-05-23T02:49:14.253Z,88.20
2018-05-23T02:51:42.620Z,89.10
2018-05-23T02:54:11.032Z,88.90
2018-05-23T02:56:38.685Z,93.20
2018-05-23T02:59:06.308Z,93.60
2018-05-23T03:01:34.362Z,89.60
2018-05-23T03:04:02.036Z,93.70
2018-05-23T03:06:30.183Z,90.50
2018-05-23T03:08:58.224Z,90.00
2018-05-23T03:11:25.854Z,92.30
2018-05-23T03:13:54.695Z,90.40
2018-05-23T03:16:22.699Z,90.60
2018-05-23T03:18:50.318Z,94.20
2018-05-23T03:21:19.093Z,90.40
2018-05-23T03:23:46.714Z,93.70
2018-05-23T03:26:15.857Z,90.40
2018-05-23T03:28:43.925Z,90.00
2018-05-23T03:31:11.525Z,93.30
2018-05-23T03:33:39.997Z,89.60
2018-05-23T03:36:08.445Z,89.60
2018-05-23T03:38:36.050Z,93.60
2018-05-23T03:41:04.433Z,89.70
2018-05-23T03:43:32.848Z,89.90
2018-05-23T03:46:00.869Z,89.80
2018-05-23T03:48:28.516Z,94.10
2018-05-23T03:50:56.957Z,89.90
2018-05-23T03:53:25.722Z,89.70
2018-05-23T03:55:54.090Z,90.00
2018-05-23T03:58:21.735Z,94.10
2018-05-23T04:04:11.876Z,90.90
2018-05-23T04:06:55.531Z,90.40
2018-05-23T04:09:23.159Z,94.00
2018-05-23T04:11:54.827Z,90.20
2018-05-23T04:14:22.898Z,94.20
2018-05-23T04:16:52.991Z,90.50
2018-05-23T04:19:21.409Z,90.60
2018-05-23T04:21:54.606Z,94.20
2018-05-23T04:24:23.019Z,90.40
2018-05-23T04:26:51.474Z,90.40
2018-05-23T04:29:20.627Z,91.00
2018-05-23T04:31:53.635Z,93.80
2018-05-23T04:34:27.997Z,94.00
2018-05-23T04:36:56.184Z,90.80
2018-05-23T04:39:41.186Z,90.90
2018-05-23T04:42:08.970Z,95.00
2018-05-23T04:44:36.624Z,95.00
2018-05-23T04:47:04.260Z,94.30
2018-05-23T04:49:31.952Z,94.80
2018-05-23T04:51:59.994Z,90.90
2018-05-23T04:54:33.202Z,90.80
2018-05-23T04:57:01.261Z,90.90
2018-05-23T04:59:39.654Z,91.60
2018-05-23T05:02:08.586Z,91.00
2018-05-23T05:04:38.783Z,91.50
2018-05-23T05:07:06.402Z,94.70
2018-05-23T05:09:34.564Z,91.50
2018-05-23T05:12:02.988Z,90.80
2018-05-23T05:14:38.738Z,91.10
2018-05-23T05:17:07.159Z,90.70
2018-05-23T05:19:35.868Z,94.50
2018-05-23T05:22:03.926Z,91.00
2018-05-23T05:24:37.210Z,94.90
2018-05-23T05:27:04.879Z,95.00
2018-05-23T05:29:37.962Z,91.20
2018-05-23T05:32:06.039Z,90.80
2018-05-23T05:34:37.635Z,90.40
2018-05-23T05:37:06.063Z,90.40
2018-05-23T05:39:34.744Z,90.20
2018-05-23T05:42:02.406Z,92.00
2018-05-23T05:44:36.777Z,93.50
2018-05-23T05:47:05.940Z,90.20
2018-05-23T05:49:40.705Z,90.30
2018-05-23T05:54:39.969Z,90.40
2018-05-23T05:57:08.446Z,89.40
2018-05-23T05:59:36.198Z,93.00
2018-05-23T06:28:03.817Z,86.30
2018-05-23T06:30:32.344Z,86.20
2018-05-23T06:33:00.752Z,87.00
2018-05-23T06:35:28.375Z,91.50
2018-05-23T06:37:56.032Z,90.40
2018-05-23T06:40:24.422Z,86.40
2018-05-23T06:42:52.947Z,85.60
2018-05-23T06:45:21.395Z,84.60
2018-05-23T06:47:49.033Z,90.00
2018-05-23T06:50:16.679Z,90.00
2018-05-23T06:52:44.687Z,84.00
2018-05-23T06:55:13.125Z,84.00
2018-05-23T06:57:41.464Z,84.10
2018-05-23T07:00:09.889Z,81.90
2018-05-23T07:02:38.117Z,80.90
2018-05-23T07:05:06.278Z,82.30
2018-05-23T07:07:34.299Z,81.10
2018-05-23T07:10:02.068Z,87.60
2018-05-23T07:12:30.494Z,80.30
2018-05-23T07:14:58.130Z,84.90
2018-05-23T07:17:26.160Z,81.10
2018-05-23T07:19:54.212Z,77.50
2018-05-23T07:22:21.832Z,85.00
2018-05-23T07:24:49.603Z,84.70
2018-05-23T07:27:17.621Z,77.40
2018-05-23T07:29:45.630Z,77.40
2018-05-23T07:32:14.030Z,79.50
2018-05-23T07:34:42.444Z,79.00
2018-05-23T07:37:10.060Z,84.80
2018-05-23T07:39:38.117Z,77.60
2018-05-23T07:42:05.780Z,83.70
2018-05-23T07:44:33.389Z,84.10
2018-05-23T07:47:01.016Z,82.60
2018-05-23T07:49:28.659Z,81.90
2018-05-23T07:51:56.289Z,81.80
2018-05-23T07:54:24.347Z,77.80
2018-05-23T07:56:52.312Z,82.50
2018-05-23T07:59:19.935Z,82.20
2018-05-23T08:01:47.556Z,83.10
2018-05-23T08:04:15.972Z,76.10
2018-05-23T08:06:44.030Z,74.20
2018-05-23T08:09:11.633Z,78.40
2018-05-23T08:11:40.052Z,72.70
2018-05-23T08:14:08.811Z,71.90
2018-05-23T08:16:36.423Z,75.50
2018-05-23T08:19:04.463Z,72.30
2018-05-23T08:21:32.829Z,69.70
2018-05-23T08:26:59.170Z,75.40
2018-05-23T08:29:26.807Z,74.10
2018-05-23T08:31:55.618Z,68.90
2018-05-23T08:34:23.620Z,69.40
2018-05-23T08:36:51.246Z,72.50
2018-05-23T08:39:18.873Z,71.60
2018-05-23T08:41:46.613Z,73.00
2018-05-23T08:44:14.233Z,68.60
2018-05-23T08:46:41.865Z,68.40
2018-05-23T08:49:09.999Z,69.80
2018-05-23T08:51:38.025Z,64.00
2018-05-23T08:54:06.048Z,64.60
2018-05-23T08:56:34.087Z,67.80
2018-05-23T08:59:01.699Z,68.50
2018-05-23T09:01:29.327Z,67.20
2018-05-23T09:03:57.756Z,62.80
2018-05-23T09:06:25.795Z,62.80
2018-05-23T09:08:53.475Z,67.80
2018-05-23T09:11:21.235Z,64.90
2018-05-23T09:13:48.869Z,68.30
2018-05-23T09:16:16.494Z,66.40
2018-05-23T09:18:44.907Z,61.60
2018-05-23T09:21:13.656Z,61.70
2018-05-23T09:23:42.141Z,61.00
2018-05-23T09:26:09.753Z,62.20
2018-05-23T09:28:38.252Z,60.20
2018-05-23T09:31:05.944Z,62.30
2018-05-23T09:33:34.330Z,60.80
2018-05-23T09:36:01.997Z,61.70
2018-05-23T09:38:29.599Z,60.70
2018-05-23T09:40:58.015Z,58.40
2018-05-23T09:43:26.852Z,56.60
2018-05-23T09:45:54.873Z,56.20
2018-05-23T09:48:24.013Z,56.60
2018-05-23T09:50:52.200Z,59.80
2018-05-23T09:53:19.837Z,58.00
2018-05-23T09:55:47.858Z,53.20
2018-05-23T09:58:17.081Z,52.10
2018-05-23T10:00:46.213Z,51.90
2018-05-23T10:03:14.259Z,52.80
2018-05-23T10:05:42.201Z,56.40
2018-05-23T10:08:09.909Z,56.70
2018-05-23T10:10:37.919Z,52.50
2018-05-23T10:13:05.555Z,55.90
2018-05-23T10:15:33.204Z,56.50
2018-05-23T10:18:01.226Z,54.90
2018-05-23T10:20:28.859Z,55.30
2018-05-23T10:22:57.276Z,52.40
2018-05-23T10:25:24.933Z,55.80
2018-05-23T10:27:52.940Z,50.80
2018-05-23T10:30:20.573Z,56.10
2018-05-23T10:32:48.941Z,50.50
2018-05-23T10:35:16.590Z,53.30
2018-05-23T10:37:44.187Z,52.90
2018-05-23T10:40:12.640Z,50.30
2018-05-23T10:42:40.255Z,52.00
2018-05-23T10:45:07.877Z,50.90
2018-05-23T10:47:35.941Z,50.60
2018-05-23T10:50:03.978Z,49.00
2018-05-23T10:52:32.430Z,48.00
2018-05-23T10:55:00.025Z,52.90
2018-05-23T10:57:28.043Z,50.60
2018-05-23T10:59:55.701Z,51.80
2018-05-23T11:02:24.120Z,48.40
2018-05-23T11:04:51.752Z,52.30
2018-05-23T11:07:20.871Z,50.20
2018-05-23T11:09:48.516Z,52.30
2018-05-23T11:12:16.138Z,51.00
2018-05-23T11:14:44.246Z,48.80
2018-05-23T11:17:11.831Z,54.10
2018-05-23T11:19:39.484Z,51.70
2018-05-23T11:22:08.016Z,50.00
2018-05-23T11:24:35.651Z,50.20
2018-05-23T11:27:04.028Z,49.80
2018-05-23T11:29:32.058Z,49.70
2018-05-23T11:32:00.217Z,48.10
2018-05-23T11:34:28.232Z,48.20
2018-05-23T11:36:55.876Z,52.60
2018-05-23T11:39:24.389Z,49.60
2018-05-23T11:41:52.775Z,48.40
2018-05-23T11:44:21.196Z,47.50
2018-05-23T11:46:49.580Z,48.20
2018-05-23T11:51:48.125Z,49.30
2018-05-23T11:54:16.156Z,48.70
2018-05-23T11:56:44.193Z,48.40
2018-05-23T12:01:40.814Z,47.50
2018-05-23T12:04:08.582Z,47.90
2018-05-23T12:06:36.213Z,47.20
2018-05-23T12:09:04.260Z,47.10
2018-05-23T12:11:32.720Z,45.50
2018-05-23T12:14:01.864Z,45.20
2018-05-23T12:16:29.883Z,46.00
2018-05-23T12:18:58.754Z,44.90
2018-05-23T12:21:26.404Z,47.10
2018-05-23T12:23:54.411Z,45.80
2018-05-23T12:26:22.819Z,45.10
2018-05-23T12:28:50.827Z,45.70
2018-05-23T12:31:18.586Z,50.40
2018-05-23T12:33:46.226Z,49.20
2018-05-23T12:36:13.860Z,47.20
2018-05-23T12:38:42.645Z,43.00
2018-05-23T12:41:11.067Z,43.70
2018-05-23T12:43:39.518Z,43.00
2018-05-23T12:46:08.049Z,43.70
2018-05-23T12:48:36.164Z,43.20
2018-05-23T12:51:04.177Z,42.70
2018-05-23T12:53:31.815Z,43.50
2018-05-23T12:55:59.453Z,42.30
2018-05-23T12:58:29.027Z,39.90
2018-05-23T13:00:58.241Z,40.20
2018-05-23T13:03:25.892Z,41.50
2018-05-23T13:05:53.491Z,40.30
2018-05-23T13:08:21.175Z,40.90
2018-05-23T13:10:48.850Z,41.70
2018-05-23T13:13:16.575Z,40.20
2018-05-23T13:15:45.152Z,38.80
2018-05-23T13:18:14.342Z,38.00
2018-05-23T13:20:42.185Z,37.20
2018-05-23T13:23:09.818Z,37.20
2018-05-23T13:25:37.834Z,36.00
2018-05-23T13:28:05.895Z,38.00
2018-05-23T13:30:33.918Z,34.90
2018-05-23T13:33:01.593Z,37.70
2018-05-23T13:35:29.225Z,37.80
2018-05-23T13:37:57.630Z,36.40
2018-05-23T13:40:26.013Z,36.60
2018-05-23T13:42:54.808Z,37.70
2018-05-23T13:45:22.496Z,40.10
2018-05-23T13:47:50.116Z,36.60
2018-05-23T13:52:47.634Z,37.90
2018-05-23T13:55:15.327Z,38.80
2018-05-23T13:57:42.959Z,37.90
2018-05-23T14:00:10.582Z,36.10
2018-05-23T14:02:38.982Z,36.40
2018-05-23T14:05:06.632Z,37.60
2018-05-23T14:07:34.266Z,38.30
2018-05-23T14:10:02.286Z,37.00
2018-05-23T14:12:29.902Z,36.40
2018-05-23T14:14:57.920Z,34.60
2018-05-23T14:17:26.342Z,35.20
2018-05-23T14:19:54.752Z,33.80
2018-05-23T14:22:22.795Z,35.30
2018-05-23T14:24:50.824Z,35.90
2018-05-23T14:27:18.508Z,35.70
2018-05-23T14:29:47.025Z,33.60
2018-05-23T14:34:46.385Z,31.80
2018-05-23T14:37:14.882Z,31.50
2018-05-23T14:44:41.763Z,34.90
2018-05-23T14:47:09.420Z,34.60
2018-05-23T14:49:37.463Z,33.40
2018-05-23T14:52:05.536Z,36.80
2018-05-23T14:54:33.736Z,33.70
2018-05-23T14:57:01.400Z,36.80
2018-05-23T14:59:29.426Z,37.10
2018-05-23T15:04:26.746Z,38.00
2018-05-23T15:06:56.237Z,36.50
2018-05-23T15:09:24.683Z,36.20
2018-05-23T15:11:52.915Z,36.00
2018-05-23T15:14:22.104Z,35.40
2018-05-23T15:19:19.407Z,36.40
2018-05-23T15:21:47.024Z,36.30
2018-05-23T15:24:14.768Z,34.90
2018-05-23T15:26:43.175Z,36.50
2018-05-23T15:29:12.051Z,33.70
2018-05-23T15:31:40.857Z,33.30
2018-05-23T15:34:09.742Z,33.30
2018-05-23T15:36:37.586Z,35.30
2018-05-23T15:39:06.228Z,33.50
2018-05-23T15:41:35.461Z,32.60
2018-05-23T15:44:03.140Z,32.80
2018-05-23T15:46:31.925Z,33.30
2018-05-23T15:48:59.665Z,33.40
2018-05-23T15:53:58.540Z,31.60
2018-05-23T15:56:26.163Z,33.30
2018-05-23T15:58:53.980Z,32.10
2018-05-23T16:01:22.824Z,32.90
2018-05-23T16:03:51.685Z,32.60
2018-05-23T16:06:19.567Z,32.90
2018-05-23T16:08:47.449Z,33.40
2018-05-23T16:11:15.131Z,33.40
2018-05-23T16:13:43.955Z,34.40
2018-05-23T16:16:12.060Z,35.50
2018-05-23T16:18:40.136Z,33.50
2018-05-23T16:21:08.940Z,31.50
2018-05-23T16:23:37.514Z,29.30
2018-05-23T16:26:05.165Z,28.70
2018-05-23T16:28:32.792Z,29.00
2018-05-23T16:31:01.302Z,29.10
2018-05-23T16:33:40.475Z,29.50
2018-05-23T16:38:37.260Z,29.10
2018-05-23T16:41:04.928Z,29.00
2018-05-23T16:43:32.541Z,28.20
2018-05-23T16:46:00.188Z,29.60
2018-05-23T16:53:27.343Z,29.30
2018-05-23T16:55:55.406Z,29.20
2018-05-23T16:58:25.068Z,27.60
2018-05-23T17:00:55.319Z,27.40
2018-05-23T17:03:23.615Z,27.60
2018-05-23T17:05:51.429Z,27.20
2018-05-23T17:08:20.666Z,26.80
2018-05-23T17:13:17.746Z,25.80
2018-05-23T17:15:45.793Z,26.70
2018-05-23T17:18:13.725Z,27.00
2018-05-23T17:20:42.413Z,26.70
2018-05-23T17:23:12.057Z,26.90
2018-05-23T17:28:08.745Z,27.30
2018-05-23T17:30:36.358Z,27.20
2018-05-23T17:33:04.901Z,27.30
2018-05-23T17:35:34.293Z,28.70
2018-05-23T17:38:01.994Z,28.80
2018-05-23T17:40:30.030Z,28.90
2018-05-23T17:42:57.738Z,29.10
2018-05-23T17:45:25.758Z,29.20
2018-05-23T17:47:53.371Z,30.00
2018-05-23T17:50:21.876Z,29.90
2018-05-23T17:52:50.274Z,29.60
2018-05-23T17:55:18.004Z,30.80
2018-05-23T18:00:15.365Z,30.80
2018-05-23T18:02:43.802Z,32.50
2018-05-23T18:05:11.895Z,33.20
2018-05-23T18:07:40.251Z,35.50
2018-05-23T18:10:08.008Z,38.00
2018-05-23T18:12:35.619Z,40.10
2018-05-23T18:15:03.662Z,40.00
2018-05-23T18:20:00.361Z,43.70
2018-05-23T18:24:57.685Z,44.70
2018-05-23T18:27:25.292Z,48.00
2018-05-23T18:29:52.964Z,49.20
2018-05-23T18:32:20.645Z,49.90
2018-05-23T18:34:49.277Z,47.90
2018-05-23T18:37:16.881Z,51.80
2018-05-23T18:39:45.641Z,49.30
2018-05-23T18:42:14.159Z,50.00
2018-05-23T18:44:42.040Z,51.60
2018-05-23T18:47:09.686Z,53.70
2018-05-23T18:49:38.126Z,51.20
2018-05-23T18:52:06.503Z,51.40
2018-05-23T18:54:34.925Z,51.60
2018-05-23T18:57:02.577Z,56.00
2018-05-23T18:59:30.734Z,54.80
2018-05-23T19:01:58.901Z,52.70
2018-05-23T19:04:26.958Z,53.30
2018-05-23T19:06:55.343Z,54.20
2018-05-23T19:09:24.137Z,54.80
2018-05-23T19:11:53.078Z,55.50
2018-05-23T19:14:20.716Z,60.10
2018-05-23T19:16:48.355Z,58.30
2018-05-23T19:19:16.784Z,57.00
2018-05-23T19:21:44.857Z,57.80
2018-05-23T19:24:12.562Z,64.60
2018-05-23T19:26:40.966Z,59.90
2018-05-23T19:29:09.778Z,59.80
2018-05-23T19:31:39.471Z,60.20
2018-05-23T19:34:07.330Z,66.30
2018-05-23T19:36:35.773Z,61.00
2018-05-23T19:39:05.477Z,68.60
2018-05-23T19:41:33.765Z,68.10
2018-05-23T19:46:31.326Z,69.80
2018-05-23T19:49:01.052Z,63.50
2018-05-23T19:51:30.216Z,64.20
2018-05-23T19:53:58.717Z,65.90
2018-05-23T20:01:27.238Z,68.10
2018-05-23T20:03:55.640Z,70.80
2018-05-23T20:06:25.117Z,69.50
2018-05-23T20:08:54.000Z,70.40
2018-05-23T20:11:22.991Z,71.10
2018-05-23T20:18:50.543Z,71.70
2018-05-23T20:21:19.203Z,79.10
2018-05-23T20:26:18.352Z,71.20
2018-05-23T20:28:46.557Z,78.80
2018-05-23T20:33:45.340Z,72.50
2018-05-23T20:36:12.936Z,77.70
2018-05-23T20:38:42.040Z,74.50
2018-05-23T20:41:11.333Z,74.40
2018-05-23T20:43:39.357Z,74.40
2018-05-23T20:46:08.138Z,75.50
2018-05-23T20:48:36.222Z,74.70
2018-05-23T20:51:04.718Z,74.80
2018-05-23T20:53:32.769Z,74.80
2018-05-23T20:56:01.936Z,74.70
2018-05-23T20:58:29.956Z,76.30
2018-05-23T21:00:58.481Z,75.20
2018-05-23T21:05:55.868Z,74.70
2018-05-23T21:08:23.552Z,82.20
2018-05-23T21:10:51.965Z,73.70
2018-05-23T21:13:19.633Z,81.20
2018-05-23T21:15:47.260Z,80.50
2018-05-23T21:18:14.949Z,80.90
2018-05-23T21:20:44.077Z,73.20
2018-05-23T21:23:12.124Z,73.30
2018-05-23T21:25:40.571Z,71.50
2018-05-23T21:30:38.675Z,70.40
2018-05-23T21:33:07.092Z,69.50
2018-05-23T21:35:34.718Z,76.50
2018-05-23T21:38:02.458Z,76.80
2018-05-23T21:40:30.093Z,76.30
2018-05-23T21:42:57.697Z,71.80
2018-05-23T21:45:25.371Z,75.60
2018-05-23T21:47:53.001Z,76.10
2018-05-23T21:50:21.370Z,68.60
2018-05-23T21:52:49.415Z,68.10
2018-05-23T21:55:17.036Z,76.80
2018-05-23T21:57:45.447Z,68.30
2018-05-23T22:00:13.464Z,68.80
2018-05-23T22:02:41.444Z,77.50
2018-05-23T22:05:09.817Z,68.70
2018-05-23T22:07:37.860Z,70.80
2018-05-23T22:10:06.280Z,70.50
2018-05-23T22:12:33.900Z,79.90
2018-05-23T22:15:01.900Z,80.20
2018-05-23T22:17:29.667Z,80.50
2018-05-23T22:19:57.288Z,81.60
2018-05-23T22:22:25.350Z,75.30
2018-05-23T22:24:53.740Z,74.60
2018-05-23T22:27:22.155Z,75.10
2018-05-23T22:29:50.178Z,74.80
2018-05-23T22:32:17.801Z,83.40
2018-05-23T22:34:45.843Z,75.20
2018-05-23T22:37:13.927Z,75.40
2018-05-23T22:39:41.534Z,84.10
2018-05-23T22:42:09.157Z,83.10
2018-05-23T22:44:36.805Z,83.30
2018-05-23T22:47:04.816Z,76.20
2018-05-23T22:49:33.958Z,77.40
2018-05-23T22:52:01.978Z,77.70
2018-05-23T22:54:30.022Z,79.40
2018-05-23T22:56:57.669Z,84.30
2018-05-23T22:59:26.043Z,77.20
2018-05-23T23:01:53.743Z,86.30
2018-05-23T23:04:21.746Z,81.40
2018-05-23T23:06:50.131Z,79.20
2018-05-23T23:09:18.555Z,80.30
2018-05-23T23:11:46.159Z,87.80
2018-05-23T23:14:14.562Z,79.60
2018-05-23T23:16:42.707Z,79.40
2018-05-23T23:19:10.739Z,80.20
2018-05-23T23:21:38.737Z,80.80
2018-05-23T23:24:06.371Z,89.60
2018-05-23T23:26:34.741Z,81.20
2018-05-23T23:29:03.164Z,81.30
2018-05-23T23:31:30.915Z,90.10
2018-05-23T23:33:58.536Z,90.20
2018-05-23T23:36:26.150Z,90.30
2018-05-23T23:38:54.270Z,90.50
2018-05-23T23:41:22.287Z,82.40
2018-05-23T23:43:49.909Z,88.10
2018-05-23T23:46:18.695Z,82.50
2018-05-23T23:48:46.320Z,90.60
2018-05-23T23:51:14.317Z,82.90
2018-05-23T23:53:42.364Z,85.10
2018-05-23T23:56:10.759Z,83.30
2018-05-23T23:58:38.506Z,91.00
